createdAt,value
2019-05-09T00:01:48.470Z,7.97
2019-05-09T00:04:19.445Z,5.77
2019-05-09T00:06:49.157Z,5.90
2019-05-09T00:09:20.488Z,5.23
2019-05-09T00:11:50.090Z,4.77
2019-05-09T00:14:23.776Z,4.33
2019-05-09T00:16:54.549Z,4.67
2019-05-09T00:19:25.982Z,5.10
2019-05-09T00:21:55.811Z,6.27
2019-05-09T00:24:26.339Z,4.87
2019-05-09T00:26:56.826Z,5.03
2019-05-09T00:29:35.549Z,5.12
2019-05-09T00:32:20.865Z,4.67
2019-05-09T00:35:14.149Z,6.05
2019-05-09T00:38:04.318Z,4.73
2019-05-09T00:40:35.976Z,4.63
2019-05-09T00:43:05.512Z,4.20
2019-05-09T00:45:55.123Z,4.07
2019-05-09T00:48:28.934Z,4.30
2019-05-09T00:50:58.528Z,4.80
2019-05-09T00:53:30.638Z,4.07
2019-05-09T00:56:00.118Z,3.77
2019-05-09T00:58:33.360Z,3.60
2019-05-09T01:01:04.408Z,3.40
2019-05-09T01:03:34.238Z,3.70
2019-05-09T01:06:04.571Z,4.00
2019-05-09T01:08:35.279Z,3.70
2019-05-09T01:11:11.762Z,3.70
2019-05-09T01:13:38.672Z,3.63
2019-05-09T01:16:08.273Z,3.87
2019-05-09T01:18:38.741Z,4.03
2019-05-09T01:21:08.195Z,4.07
2019-05-09T01:23:39.246Z,3.90
2019-05-09T01:26:09.900Z,3.60
2019-05-09T01:28:39.286Z,4.00
2019-05-09T01:31:10.407Z,3.40
2019-05-09T01:34:03.991Z,4.33
2019-05-09T01:36:53.898Z,3.70
2019-05-09T01:39:24.164Z,4.10
2019-05-09T01:41:55.638Z,5.13
2019-05-09T01:44:26.238Z,3.43
2019-05-09T01:46:55.823Z,3.83
2019-05-09T01:49:26.229Z,3.90
2019-05-09T01:51:55.903Z,3.70
2019-05-09T01:54:27.894Z,3.73
2019-05-09T01:56:58.702Z,3.80
2019-05-09T01:59:28.141Z,4.27
2019-05-09T02:01:57.609Z,3.80
2019-05-09T02:04:26.971Z,4.40
2019-05-09T02:06:56.411Z,3.77
2019-05-09T02:09:26.475Z,4.43
2019-05-09T02:11:56.023Z,4.30
2019-05-09T02:14:34.973Z,3.90
2019-05-09T02:17:23.875Z,4.27
2019-05-09T02:19:53.446Z,4.00
2019-05-09T02:22:34.529Z,4.17
2019-05-09T02:25:05.951Z,4.10
2019-05-09T02:27:35.414Z,4.57
2019-05-09T02:30:07.315Z,4.97
2019-05-09T02:32:37.332Z,4.13
2019-05-09T02:35:07.730Z,4.60
2019-05-09T02:37:38.881Z,4.90
2019-05-09T02:40:10.563Z,4.60
2019-05-09T02:42:40.430Z,6.57
2019-05-09T02:45:11.534Z,5.77
2019-05-09T02:47:42.430Z,6.07
2019-05-09T02:50:13.392Z,5.53
2019-05-09T02:52:44.711Z,6.70
2019-05-09T02:55:14.654Z,6.40
2019-05-09T02:57:48.955Z,6.20
2019-05-09T03:00:39.690Z,7.60
2019-05-09T03:03:20.993Z,8.47
2019-05-09T03:05:50.933Z,7.80
2019-05-09T03:08:21.475Z,8.00
2019-05-09T03:10:52.647Z,9.00
2019-05-09T03:13:22.183Z,8.60
2019-05-09T03:15:53.601Z,8.53
2019-05-09T03:18:23.007Z,7.67
2019-05-09T03:21:30.176Z,7.77
2019-05-09T03:24:02.235Z,8.07
2019-05-09T03:26:38.454Z,8.50
2019-05-09T03:29:41.751Z,8.50
2019-05-09T03:32:11.509Z,9.90
2019-05-09T03:34:42.731Z,9.23
2019-05-09T03:37:13.670Z,8.93
2019-05-09T03:39:43.478Z,9.27
2019-05-09T03:42:13.092Z,9.10
2019-05-09T03:44:43.631Z,10.10
2019-05-09T03:47:37.656Z,9.70
2019-05-09T03:50:18.574Z,10.13
2019-05-09T03:52:48.144Z,9.70
2019-05-09T03:55:22.263Z,9.83
2019-05-09T03:57:59.617Z,10.10
2019-05-09T04:00:29.102Z,11.07
2019-05-09T04:02:58.603Z,12.00
2019-05-09T04:05:29.997Z,12.20
2019-05-09T04:08:20.226Z,12.87
2019-05-09T04:10:51.372Z,12.30
2019-05-09T04:13:24.667Z,12.03
2019-05-09T04:15:55.317Z,12.57
2019-05-09T04:18:27.584Z,11.93
2019-05-09T04:20:59.652Z,12.23
2019-05-09T04:23:29.173Z,13.03
2019-05-09T04:26:14.110Z,12.00
2019-05-09T04:28:47.134Z,12.47
2019-05-09T04:31:17.831Z,12.77
2019-05-09T04:33:48.675Z,13.47
2019-05-09T04:36:22.394Z,12.73
2019-05-09T04:38:54.416Z,13.93
2019-05-09T04:41:25.384Z,12.87
2019-05-09T04:43:57.483Z,13.43
2019-05-09T04:46:27.782Z,13.00
2019-05-09T04:49:02.726Z,13.00
2019-05-09T04:51:32.442Z,12.67
2019-05-09T04:54:01.908Z,14.10
2019-05-09T04:56:38.107Z,11.70
2019-05-09T04:59:09.212Z,13.50
2019-05-09T05:01:58.662Z,12.73
2019-05-09T05:04:30.702Z,13.17
2019-05-09T05:07:01.934Z,14.27
2019-05-09T05:09:32.395Z,13.33
2019-05-09T05:12:02.072Z,13.13
2019-05-09T05:14:33.830Z,13.23
2019-05-09T05:17:10.607Z,14.93
2019-05-09T05:19:38.317Z,14.83
2019-05-09T05:22:18.261Z,20.40
2019-05-09T05:24:59.193Z,19.27
2019-05-09T05:27:28.252Z,18.57
2019-05-09T05:29:59.337Z,20.47
2019-05-09T05:33:01.190Z,20.47
2019-05-09T05:35:42.143Z,20.37
2019-05-09T05:38:14.158Z,21.10
2019-05-09T05:40:47.619Z,20.20
2019-05-09T05:43:18.185Z,20.23
2019-05-09T05:46:04.755Z,21.50
2019-05-09T05:48:35.127Z,25.43
2019-05-09T05:51:04.570Z,24.47
2019-05-09T05:53:35.229Z,24.87
2019-05-09T05:56:08.498Z,25.17
2019-05-09T05:58:40.243Z,25.77
2019-05-09T06:01:09.794Z,24.63
2019-05-09T06:03:39.396Z,24.70
2019-05-09T06:06:09.081Z,25.50
2019-05-09T06:08:40.960Z,26.53
2019-05-09T06:11:12.239Z,26.37
2019-05-09T06:13:54.500Z,27.17
2019-05-09T06:16:19.013Z,26.42
2019-05-09T06:18:48.791Z,25.20
2019-05-09T06:21:18.301Z,26.13
2019-05-09T06:23:50.534Z,25.37
2019-05-09T06:26:20.063Z,24.83
2019-05-09T06:28:51.369Z,24.67
2019-05-09T06:31:22.747Z,23.67
2019-05-09T06:33:54.215Z,24.00
2019-05-09T06:36:23.820Z,22.23
2019-05-09T06:38:53.309Z,24.03
2019-05-09T06:41:22.869Z,25.07
2019-05-09T06:44:13.228Z,25.33
2019-05-09T06:46:38.989Z,22.80
2019-05-09T06:49:24.203Z,24.33
2019-05-09T06:51:43.727Z,26.03
2019-05-09T06:54:14.309Z,27.77
2019-05-09T06:56:43.778Z,25.37
2019-05-09T06:59:14.992Z,24.83
2019-05-09T07:01:51.799Z,22.47
2019-05-09T07:04:30.232Z,24.97
2019-05-09T07:07:08.001Z,26.17
2019-05-09T07:09:51.246Z,23.30
2019-05-09T07:12:20.770Z,24.03
2019-05-09T07:14:50.363Z,23.43
2019-05-09T07:17:21.624Z,23.13
2019-05-09T07:19:52.250Z,21.73
2019-05-09T07:22:38.832Z,22.33
2019-05-09T07:25:32.004Z,27.17
2019-05-09T07:28:03.254Z,23.77
2019-05-09T07:30:49.606Z,27.10
2019-05-09T07:33:27.967Z,24.57
2019-05-09T07:35:58.183Z,25.97
2019-05-09T07:38:31.994Z,29.30
2019-05-09T07:41:02.669Z,30.53
2019-05-09T07:43:35.101Z,28.17
2019-05-09T07:46:08.960Z,30.03
2019-05-09T07:48:41.890Z,28.83
2019-05-09T07:51:12.769Z,30.30
2019-05-09T07:53:42.187Z,29.63
2019-05-09T07:56:15.158Z,30.77
2019-05-09T07:58:45.157Z,29.70
2019-05-09T08:01:14.640Z,29.50
2019-05-09T08:03:44.044Z,27.53
2019-05-09T08:06:15.059Z,25.93
2019-05-09T08:08:47.667Z,25.37
2019-05-09T08:11:19.112Z,28.90
2019-05-09T08:13:50.281Z,27.13
2019-05-09T08:16:20.847Z,28.63
2019-05-09T08:18:50.827Z,29.40
2019-05-09T08:21:20.466Z,25.50
2019-05-09T08:23:50.009Z,25.87
2019-05-09T08:26:20.699Z,23.40
2019-05-09T08:28:50.490Z,24.43
2019-05-09T08:31:21.507Z,26.93
2019-05-09T08:33:51.060Z,28.03
2019-05-09T08:36:20.894Z,26.67
2019-05-09T08:38:52.710Z,25.10
2019-05-09T08:41:22.167Z,28.57
2019-05-09T08:43:53.597Z,32.50
2019-05-09T08:46:28.600Z,28.50
2019-05-09T08:48:58.039Z,26.37
2019-05-09T08:51:36.722Z,25.90
2019-05-09T08:54:06.160Z,77.87
2019-05-09T08:56:38.766Z,27.07
2019-05-09T08:59:12.062Z,25.20
2019-05-09T09:02:10.025Z,23.47
2019-05-09T09:04:15.821Z,27.40
2019-05-09T09:06:48.296Z,37.10
2019-05-09T09:09:18.077Z,23.03
2019-05-09T09:11:49.507Z,20.63
2019-05-09T09:14:19.040Z,56.23
2019-05-09T09:16:48.629Z,37.07
2019-05-09T09:19:19.143Z,23.10
2019-05-09T09:21:49.724Z,24.00
2019-05-09T09:24:20.649Z,21.13
2019-05-09T09:26:51.834Z,21.87
2019-05-09T09:29:24.168Z,19.50
2019-05-09T09:31:57.684Z,18.33
2019-05-09T09:34:30.063Z,19.27
2019-05-09T09:37:05.444Z,18.43
2019-05-09T09:39:33.123Z,18.43
2019-05-09T09:42:05.217Z,19.07
2019-05-09T09:44:38.784Z,16.97
2019-05-09T09:47:11.691Z,18.70
2019-05-09T09:49:44.358Z,19.10
2019-05-09T09:52:14.961Z,17.50
2019-05-09T09:54:48.080Z,16.67
2019-05-09T09:57:19.098Z,15.40
2019-05-09T09:59:55.006Z,16.30
2019-05-09T10:02:29.205Z,15.10
2019-05-09T10:04:59.132Z,14.57
2019-05-09T10:07:28.771Z,12.93
2019-05-09T10:09:58.591Z,12.27
2019-05-09T10:12:30.176Z,12.77
2019-05-09T10:15:20.668Z,12.73
2019-05-09T10:17:58.251Z,12.27
2019-05-09T10:20:44.764Z,11.40
2019-05-09T10:23:18.863Z,10.20
2019-05-09T10:25:45.835Z,11.87
2019-05-09T10:28:21.497Z,12.17
2019-05-09T10:30:51.076Z,10.50
2019-05-09T10:33:23.588Z,11.30
2019-05-09T10:35:54.165Z,10.90
2019-05-09T10:38:27.995Z,10.57
2019-05-09T10:41:01.257Z,11.87
2019-05-09T10:43:52.248Z,11.63
2019-05-09T10:46:52.651Z,8.47
2019-05-09T10:49:16.115Z,8.63
2019-05-09T10:51:45.619Z,9.73
2019-05-09T10:54:18.577Z,8.67
2019-05-09T10:56:48.929Z,6.87
2019-05-09T10:59:18.598Z,4.77
2019-05-09T11:01:49.731Z,5.13
2019-05-09T11:04:20.736Z,5.93
2019-05-09T11:06:50.426Z,7.10
2019-05-09T11:09:20.986Z,6.27
2019-05-09T11:11:51.832Z,7.10
2019-05-09T11:14:36.191Z,7.22
2019-05-09T11:17:07.972Z,5.20
2019-05-09T11:19:29.451Z,7.50
2019-05-09T11:22:00.172Z,5.37
2019-05-09T11:24:41.834Z,9.00
2019-05-09T11:27:01.444Z,5.57
2019-05-09T11:29:31.870Z,7.17
2019-05-09T11:32:03.441Z,8.27
2019-05-09T11:34:32.970Z,5.10
2019-05-09T11:37:02.576Z,7.13
2019-05-09T11:39:39.012Z,6.07
2019-05-09T11:42:04.660Z,8.47
2019-05-09T11:44:38.396Z,5.60
2019-05-09T11:47:26.819Z,6.67
2019-05-09T11:49:39.249Z,7.83
2019-05-09T11:52:09.856Z,9.53
2019-05-09T11:54:39.580Z,5.27
2019-05-09T11:57:09.114Z,6.63
2019-05-09T11:59:41.089Z,6.07
2019-05-09T12:02:11.283Z,6.90
2019-05-09T12:04:42.620Z,5.53
2019-05-09T12:07:13.145Z,5.30
2019-05-09T12:09:42.755Z,4.23
2019-05-09T12:12:13.224Z,5.23
2019-05-09T12:14:44.124Z,5.23
2019-05-09T12:17:14.034Z,3.63
2019-05-09T12:19:43.503Z,4.60
2019-05-09T12:22:13.430Z,3.73
2019-05-09T12:24:44.943Z,3.43
2019-05-09T12:27:14.511Z,5.70
2019-05-09T12:29:48.217Z,3.40
2019-05-09T12:32:18.630Z,2.53
2019-05-09T12:34:48.593Z,5.43
2019-05-09T12:37:19.402Z,4.70
2019-05-09T12:39:49.184Z,3.07
2019-05-09T12:42:20.705Z,2.97
2019-05-09T12:44:51.154Z,2.57
2019-05-09T12:47:21.036Z,4.97
2019-05-09T12:49:51.664Z,3.53
2019-05-09T12:52:22.959Z,2.70
2019-05-09T12:54:58.294Z,4.63
2019-05-09T12:57:29.710Z,4.67
2019-05-09T13:00:00.240Z,3.57
2019-05-09T13:02:29.933Z,4.33
2019-05-09T13:04:59.362Z,3.13
2019-05-09T13:07:30.320Z,3.27
2019-05-09T13:10:00.436Z,3.30
2019-05-09T13:12:30.919Z,3.40
2019-05-09T13:15:00.493Z,3.77
2019-05-09T13:17:38.394Z,3.27
2019-05-09T13:20:08.921Z,2.80
2019-05-09T13:22:38.431Z,3.67
2019-05-09T13:25:10.291Z,5.17
2019-05-09T13:27:41.453Z,2.80
2019-05-09T13:30:11.574Z,3.50
2019-05-09T13:32:41.503Z,3.37
2019-05-09T13:35:11.187Z,5.67
2019-05-09T13:37:40.902Z,3.97
2019-05-09T13:40:10.493Z,4.47
2019-05-09T13:42:42.791Z,4.20
2019-05-09T13:45:14.126Z,2.40
2019-05-09T13:47:48.490Z,2.80
2019-05-09T13:50:18.797Z,4.93
2019-05-09T13:52:50.029Z,7.20
2019-05-09T13:55:19.634Z,4.70
2019-05-09T13:57:50.100Z,5.83
2019-05-09T14:00:20.716Z,3.60
2019-05-09T14:02:50.627Z,2.33
2019-05-09T14:05:20.133Z,2.23
2019-05-09T14:07:54.318Z,2.83
2019-05-09T14:10:20.844Z,2.27
2019-05-09T14:13:05.668Z,2.23
2019-05-09T14:15:22.569Z,2.07
2019-05-09T14:17:54.136Z,3.83
2019-05-09T14:20:24.804Z,3.33
2019-05-09T14:22:54.353Z,5.73
2019-05-09T14:25:28.931Z,4.30
2019-05-09T14:27:58.821Z,4.97
2019-05-09T14:30:28.686Z,3.53
2019-05-09T14:33:00.330Z,3.27
2019-05-09T14:35:33.176Z,3.60
2019-05-09T14:38:02.884Z,3.40
2019-05-09T14:40:33.520Z,3.43
2019-05-09T14:43:03.025Z,3.90
2019-05-09T14:45:32.566Z,3.27
2019-05-09T14:48:01.931Z,3.37
2019-05-09T14:50:32.358Z,3.40
2019-05-09T14:53:01.977Z,4.20
2019-05-09T14:55:31.381Z,3.77
2019-05-09T14:58:00.769Z,4.20
2019-05-09T15:00:30.202Z,3.20
2019-05-09T15:03:00.669Z,3.63
2019-05-09T15:05:30.002Z,3.30
2019-05-09T15:07:59.527Z,4.33
2019-05-09T15:10:30.581Z,3.43
2019-05-09T15:13:01.158Z,5.90
2019-05-09T15:15:32.722Z,3.03
2019-05-09T15:18:03.423Z,3.07
2019-05-09T15:20:34.027Z,3.03
2019-05-09T15:23:03.652Z,3.00
2019-05-09T15:25:33.139Z,2.33
2019-05-09T15:28:07.981Z,5.10
2019-05-09T15:30:38.506Z,3.07
2019-05-09T15:33:10.066Z,5.13
2019-05-09T15:35:39.752Z,6.90
2019-05-09T15:38:10.314Z,4.23
2019-05-09T15:40:40.115Z,3.77
2019-05-09T15:43:11.296Z,4.40
2019-05-09T15:46:03.006Z,4.47
2019-05-09T15:48:32.526Z,4.63
2019-05-09T15:51:03.993Z,5.33
2019-05-09T15:53:33.593Z,4.20
2019-05-09T15:56:03.066Z,3.40
2019-05-09T15:58:32.622Z,2.73
2019-05-09T16:01:08.135Z,4.27
2019-05-09T16:03:38.376Z,2.00
2019-05-09T16:06:09.005Z,3.57
2019-05-09T16:08:39.727Z,4.73
2019-05-09T16:11:09.145Z,6.20
2019-05-09T16:13:38.658Z,4.00
2019-05-09T16:16:09.029Z,3.03
2019-05-09T16:18:42.924Z,3.70
2019-05-09T16:21:14.035Z,2.90
2019-05-09T16:23:43.545Z,2.67
2019-05-09T16:26:14.033Z,3.43
2019-05-09T16:28:45.305Z,5.23
2019-05-09T16:31:14.837Z,2.90
2019-05-09T16:33:44.674Z,5.37
2019-05-09T16:36:17.617Z,4.33
2019-05-09T16:38:49.075Z,3.83
2019-05-09T16:41:20.892Z,3.17
2019-05-09T16:43:52.637Z,4.27
2019-05-09T16:46:23.238Z,8.87
2019-05-09T16:48:52.708Z,3.90
2019-05-09T16:51:23.270Z,4.10
2019-05-09T16:53:54.511Z,4.53
2019-05-09T16:56:25.598Z,5.07
2019-05-09T16:58:57.677Z,3.27
2019-05-09T17:01:28.434Z,4.07
2019-05-09T17:03:58.153Z,4.47
2019-05-09T17:06:28.181Z,5.20
2019-05-09T17:09:00.066Z,2.50
2019-05-09T17:11:29.822Z,3.13
2019-05-09T17:14:00.366Z,4.80
2019-05-09T17:16:31.446Z,3.90
2019-05-09T17:19:01.141Z,6.60
2019-05-09T17:21:49.689Z,5.08
2019-05-09T17:24:21.972Z,4.37
2019-05-09T17:26:51.604Z,3.47
2019-05-09T17:29:22.666Z,4.83
2019-05-09T17:31:54.752Z,3.47
2019-05-09T17:34:24.228Z,3.67
2019-05-09T17:36:54.443Z,5.83
2019-05-09T17:39:24.268Z,5.53
2019-05-09T17:41:55.207Z,4.43
2019-05-09T17:44:28.015Z,2.90
2019-05-09T17:46:58.419Z,4.73
2019-05-09T17:49:28.173Z,5.37
2019-05-09T17:51:58.859Z,4.07
2019-05-09T17:54:28.900Z,5.60
2019-05-09T17:56:58.525Z,3.23
2019-05-09T17:59:29.529Z,3.47
2019-05-09T18:02:02.110Z,3.43
2019-05-09T18:04:31.646Z,4.10
2019-05-09T18:07:04.285Z,4.87
2019-05-09T18:09:33.938Z,3.53
2019-05-09T18:12:03.427Z,4.00
2019-05-09T18:14:35.449Z,5.27
2019-05-09T18:17:05.315Z,4.17
2019-05-09T18:19:34.775Z,5.17
2019-05-09T18:22:07.643Z,5.47
2019-05-09T18:24:38.192Z,3.87
2019-05-09T18:27:09.284Z,10.17
2019-05-09T18:29:39.732Z,5.60
2019-05-09T18:32:40.068Z,9.40
2019-05-09T18:35:20.957Z,5.90
2019-05-09T18:37:52.412Z,5.27
2019-05-09T18:40:22.681Z,7.70
2019-05-09T18:42:55.058Z,7.20
2019-05-09T18:45:28.333Z,8.33
2019-05-09T18:47:58.673Z,7.30
2019-05-09T18:50:28.490Z,5.23
2019-05-09T18:52:58.424Z,5.43
2019-05-09T18:55:29.667Z,5.60
2019-05-09T18:58:00.284Z,6.43
2019-05-09T19:00:31.347Z,5.67
2019-05-09T19:03:00.841Z,4.93
2019-05-09T19:05:32.242Z,5.97
2019-05-09T19:08:02.032Z,4.83
2019-05-09T19:10:31.728Z,5.28
2019-05-09T19:13:03.696Z,5.13
2019-05-09T19:15:58.226Z,5.30
2019-05-09T19:19:00.099Z,3.87
2019-05-09T19:21:41.789Z,4.17
2019-05-09T19:24:11.320Z,4.07
2019-05-09T19:26:40.930Z,4.07
2019-05-09T19:29:13.499Z,4.00
2019-05-09T19:31:44.690Z,3.73
2019-05-09T19:34:14.079Z,5.37
2019-05-09T19:36:43.532Z,4.17
2019-05-09T19:39:13.500Z,4.37
2019-05-09T19:42:16.073Z,9.27
2019-05-09T19:44:45.481Z,10.63
2019-05-09T19:47:14.852Z,5.07
2019-05-09T19:49:44.562Z,3.63
2019-05-09T19:52:13.963Z,3.47
2019-05-09T19:54:43.378Z,7.53
2019-05-09T19:57:14.030Z,5.30
2019-05-09T19:59:44.712Z,5.60
2019-05-09T20:02:14.161Z,4.77
2019-05-09T20:04:43.668Z,4.37
2019-05-09T20:07:17.065Z,6.30
2019-05-09T20:09:51.963Z,3.60
2019-05-09T20:12:37.000Z,4.63
2019-05-09T20:15:08.245Z,5.17
2019-05-09T20:17:38.956Z,4.47
2019-05-09T20:20:10.916Z,5.77
2019-05-09T20:22:52.428Z,5.67
2019-05-09T20:25:14.319Z,6.60
2019-05-09T20:27:45.592Z,6.13
2019-05-09T20:30:15.506Z,4.23
2019-05-09T20:32:45.006Z,3.73
2019-05-09T20:35:14.531Z,3.93
2019-05-09T20:37:44.318Z,4.73
2019-05-09T20:40:16.103Z,3.83
2019-05-09T20:42:45.822Z,5.80
2019-05-09T20:45:15.877Z,5.20
2019-05-09T20:47:46.739Z,5.40
2019-05-09T20:50:44.782Z,4.23
2019-05-09T20:53:14.318Z,3.77
2019-05-09T20:55:46.381Z,9.37
2019-05-09T20:58:17.988Z,11.57
2019-05-09T21:00:47.719Z,6.73
2019-05-09T21:03:17.507Z,6.50
2019-05-09T21:05:47.328Z,4.27
2019-05-09T21:08:17.096Z,4.87
2019-05-09T21:10:47.864Z,4.47
2019-05-09T21:13:20.547Z,4.70
2019-05-09T21:15:51.246Z,4.70
2019-05-09T21:18:20.958Z,6.83
2019-05-09T21:20:52.048Z,4.50
2019-05-09T21:23:25.067Z,4.30
2019-05-09T21:25:54.865Z,4.20
2019-05-09T21:28:25.599Z,5.43
2019-05-09T21:30:55.263Z,5.60
2019-05-09T21:33:24.973Z,3.40
2019-05-09T21:35:54.813Z,4.70
2019-05-09T21:38:24.335Z,4.80
2019-05-09T21:40:53.837Z,3.73
2019-05-09T21:43:23.718Z,3.97
2019-05-09T21:45:53.141Z,5.00
2019-05-09T21:48:22.564Z,6.40
2019-05-09T21:50:53.149Z,4.27
2019-05-09T21:53:22.707Z,5.80
2019-05-09T21:55:52.224Z,5.23
2019-05-09T21:58:21.831Z,4.80
2019-05-09T22:00:55.020Z,5.93
2019-05-09T22:03:24.722Z,6.93
2019-05-09T22:05:54.597Z,5.97
2019-05-09T22:08:25.182Z,5.80
2019-05-09T22:10:56.447Z,5.07
2019-05-09T22:13:27.659Z,5.93
2019-05-09T22:15:57.330Z,4.83
2019-05-09T22:18:28.146Z,5.53
2019-05-09T22:20:57.628Z,5.40
2019-05-09T22:23:27.211Z,5.90
2019-05-09T22:25:56.666Z,6.27
2019-05-09T22:28:27.802Z,5.47
2019-05-09T22:30:57.615Z,5.30
2019-05-09T22:33:28.117Z,6.43
2019-05-09T22:35:57.681Z,7.10
2019-05-09T22:38:27.099Z,5.73
2019-05-09T22:40:56.489Z,5.20
2019-05-09T22:43:26.052Z,6.07
2019-05-09T22:45:56.244Z,5.33
2019-05-09T22:48:25.819Z,4.97
2019-05-09T22:50:59.011Z,4.27
2019-05-09T22:53:29.954Z,5.03
2019-05-09T22:56:00.760Z,4.57
2019-05-09T22:58:36.129Z,5.07
2019-05-09T23:01:06.632Z,4.35
2019-05-09T23:03:44.818Z,5.20
2019-05-09T23:06:14.310Z,5.20
2019-05-09T23:08:45.134Z,5.27
2019-05-09T23:11:16.881Z,5.10
2019-05-09T23:13:52.635Z,4.73
2019-05-09T23:16:29.652Z,4.70
2019-05-09T23:18:59.526Z,5.37
2019-05-09T23:21:31.492Z,5.43
2019-05-09T23:24:27.435Z,5.70
2019-05-09T23:26:44.333Z,7.00
2019-05-09T23:29:13.770Z,6.43
2019-05-09T23:31:54.759Z,5.13
2019-05-09T23:34:25.611Z,6.37
2019-05-09T23:39:45.656Z,4.90
2019-05-09T23:42:15.142Z,5.33
2019-05-09T23:44:45.669Z,5.70
2019-05-09T23:47:18.475Z,4.80
2019-05-09T23:49:49.033Z,5.30
2019-05-09T23:52:19.775Z,5.40
2019-05-09T23:55:08.548Z,5.70
2019-05-09T23:57:55.723Z,5.63
